sensor_id;sensor_type;location;lat;lon;timestamp;temperature;humidity
2363;DHT22;64265;51.664;7.626;2023-05-21T00:01:34;22.50;70.70
2363;DHT22;64265;51.664;7.626;2023-05-21T00:04:00;22.50;70.70
2363;DHT22;64265;51.664;7.626;2023-05-21T00:06:29;22.50;70.70
2363;DHT22;64265;51.664;7.626;2023-05-21T00:08:56;22.50;70.70
2363;DHT22;64265;51.664;7.626;2023-05-21T00:11:23;22.50;70.70
2363;DHT22;64265;51.664;7.626;2023-05-21T00:13:50;22.50;70.70
2363;DHT22;64265;51.664;7.626;2023-05-21T00:16:17;22.50;70.90
2363;DHT22;64265;51.664;7.626;2023-05-21T00:18:43;22.50;70.70
2363;DHT22;64265;51.664;7.626;2023-05-21T00:21:10;22.50;70.80
2363;DHT22;64265;51.664;7.626;2023-05-21T00:23:39;22.50;70.80
2363;DHT22;64265;51.664;7.626;2023-05-21T00:26:07;22.40;70.70
2363;DHT22;64265;51.664;7.626;2023-05-21T00:28:33;22.40;70.80
2363;DHT22;64265;51.664;7.626;2023-05-21T00:31:00;22.40;70.70
2363;DHT22;64265;51.664;7.626;2023-05-21T00:33:27;22.40;70.60
2363;DHT22;64265;51.664;7.626;2023-05-21T00:35:55;22.40;70.70
2363;DHT22;64265;51.664;7.626;2023-05-21T00:38:22;22.40;70.70
2363;DHT22;64265;51.664;7.626;2023-05-21T00:40:53;22.40;70.80
2363;DHT22;64265;51.664;7.626;2023-05-21T00:43:20;22.40;70.80
2363;DHT22;64265;51.664;7.626;2023-05-21T00:45:51;22.40;70.80
2363;DHT22;64265;51.664;7.626;2023-05-21T00:48:18;22.40;70.80
2363;DHT22;64265;51.664;7.626;2023-05-21T00:50:47;22.40;70.70
2363;DHT22;64265;51.664;7.626;2023-05-21T00:53:14;22.40;70.80
2363;DHT22;64265;51.664;7.626;2023-05-21T00:55:43;22.30;70.60
2363;DHT22;64265;51.664;7.626;2023-05-21T00:58:12;22.30;70.70
2363;DHT22;64265;51.664;7.626;2023-05-21T01:00:38;22.30;70.70
2363;DHT22;64265;51.664;7.626;2023-05-21T01:03:06;22.30;70.70
2363;DHT22;64265;51.664;7.626;2023-05-21T01:05:34;22.30;70.70
2363;DHT22;64265;51.664;7.626;2023-05-21T01:08:01;22.30;70.80
2363;DHT22;64265;51.664;7.626;2023-05-21T01:10:28;22.30;70.90
2363;DHT22;64265;51.664;7.626;2023-05-21T01:12:57;22.30;70.80
2363;DHT22;64265;51.664;7.626;2023-05-21T01:15:26;22.30;70.80
2363;DHT22;64265;51.664;7.626;2023-05-21T01:17:53;22.30;70.70
2363;DHT22;64265;51.664;7.626;2023-05-21T01:20:21;22.30;70.70
2363;DHT22;64265;51.664;7.626;2023-05-21T01:22:52;22.30;70.80
2363;DHT22;64265;51.664;7.626;2023-05-21T01:25:19;22.30;70.80
2363;DHT22;64265;51.664;7.626;2023-05-21T01:27:46;22.20;70.70
2363;DHT22;64265;51.664;7.626;2023-05-21T01:30:13;22.20;70.80
2363;DHT22;64265;51.664;7.626;2023-05-21T01:32:46;22.20;70.80
2363;DHT22;64265;51.664;7.626;2023-05-21T01:35:19;22.20;70.90
2363;DHT22;64265;51.664;7.626;2023-05-21T01:37:52;22.20;70.80
2363;DHT22;64265;51.664;7.626;2023-05-21T01:40:24;22.20;70.80
2363;DHT22;64265;51.664;7.626;2023-05-21T01:42:52;22.20;70.80
2363;DHT22;64265;51.664;7.626;2023-05-21T01:45:21;22.20;70.70
2363;DHT22;64265;51.664;7.626;2023-05-21T01:47:50;22.20;70.80
2363;DHT22;64265;51.664;7.626;2023-05-21T01:50:19;22.20;70.70
2363;DHT22;64265;51.664;7.626;2023-05-21T01:52:53;22.20;70.80
2363;DHT22;64265;51.664;7.626;2023-05-21T01:55:21;22.20;70.70
2363;DHT22;64265;51.664;7.626;2023-05-21T01:57:50;22.20;70.80
2363;DHT22;64265;51.664;7.626;2023-05-21T02:00:18;22.20;70.80
2363;DHT22;64265;51.664;7.626;2023-05-21T02:02:45;22.20;70.80
2363;DHT22;64265;51.664;7.626;2023-05-21T02:05:12;22.20;70.90
2363;DHT22;64265;51.664;7.626;2023-05-21T02:07:39;22.10;70.70
2363;DHT22;64265;51.664;7.626;2023-05-21T02:10:08;22.10;70.70
2363;DHT22;64265;51.664;7.626;2023-05-21T02:12:35;22.10;70.80
2363;DHT22;64265;51.664;7.626;2023-05-21T02:15:02;22.10;70.80
2363;DHT22;64265;51.664;7.626;2023-05-21T02:17:29;22.10;70.80
2363;DHT22;64265;51.664;7.626;2023-05-21T02:19:58;22.10;70.80
2363;DHT22;64265;51.664;7.626;2023-05-21T02:22:31;22.10;70.80
2363;DHT22;64265;51.664;7.626;2023-05-21T02:25:01;22.10;70.80
2363;DHT22;64265;51.664;7.626;2023-05-21T02:27:29;22.10;70.80
2363;DHT22;64265;51.664;7.626;2023-05-21T02:29:56;22.10;70.90
2363;DHT22;64265;51.664;7.626;2023-05-21T02:32:23;22.10;70.80
2363;DHT22;64265;51.664;7.626;2023-05-21T02:34:50;22.10;70.90
2363;DHT22;64265;51.664;7.626;2023-05-21T02:37:17;22.00;70.80
2363;DHT22;64265;51.664;7.626;2023-05-21T02:39:44;22.00;70.80
2363;DHT22;64265;51.664;7.626;2023-05-21T02:42:11;22.00;70.90
2363;DHT22;64265;51.664;7.626;2023-05-21T02:44:39;22.00;70.80
2363;DHT22;64265;51.664;7.626;2023-05-21T02:47:06;22.00;70.80
2363;DHT22;64265;51.664;7.626;2023-05-21T02:49:34;22.00;70.90
2363;DHT22;64265;51.664;7.626;2023-05-21T02:52:01;22.00;70.80
2363;DHT22;64265;51.664;7.626;2023-05-21T02:54:27;22.00;70.90
2363;DHT22;64265;51.664;7.626;2023-05-21T02:56:54;22.00;71.00
2363;DHT22;64265;51.664;7.626;2023-05-21T02:59:21;22.00;70.90
2363;DHT22;64265;51.664;7.626;2023-05-21T03:01:49;22.00;70.80
2363;DHT22;64265;51.664;7.626;2023-05-21T03:04:15;22.00;70.90
2363;DHT22;64265;51.664;7.626;2023-05-21T03:06:42;22.00;70.90
2363;DHT22;64265;51.664;7.626;2023-05-21T03:09:10;22.00;71.70
2363;DHT22;64265;51.664;7.626;2023-05-21T03:11:37;22.00;70.90
2363;DHT22;64265;51.664;7.626;2023-05-21T03:14:04;21.90;70.80
2363;DHT22;64265;51.664;7.626;2023-05-21T03:16:31;21.90;70.90
2363;DHT22;64265;51.664;7.626;2023-05-21T03:19:00;21.90;70.70
2363;DHT22;64265;51.664;7.626;2023-05-21T03:21:27;21.90;70.90
2363;DHT22;64265;51.664;7.626;2023-05-21T03:23:54;21.90;70.90
2363;DHT22;64265;51.664;7.626;2023-05-21T03:26:23;21.90;70.90
2363;DHT22;64265;51.664;7.626;2023-05-21T03:28:51;21.90;70.90
2363;DHT22;64265;51.664;7.626;2023-05-21T03:31:18;21.90;70.90
2363;DHT22;64265;51.664;7.626;2023-05-21T03:33:45;21.90;70.90
2363;DHT22;64265;51.664;7.626;2023-05-21T03:36:13;21.90;71.00
2363;DHT22;64265;51.664;7.626;2023-05-21T03:38:39;21.90;71.00
2363;DHT22;64265;51.664;7.626;2023-05-21T03:41:07;21.90;71.00
2363;DHT22;64265;51.664;7.626;2023-05-21T03:43:34;21.90;71.00
2363;DHT22;64265;51.664;7.626;2023-05-21T03:46:00;21.90;71.00
2363;DHT22;64265;51.664;7.626;2023-05-21T03:48:27;21.90;71.00
2363;DHT22;64265;51.664;7.626;2023-05-21T03:50:54;21.80;70.90
2363;DHT22;64265;51.664;7.626;2023-05-21T03:53:22;21.80;71.00
2363;DHT22;64265;51.664;7.626;2023-05-21T03:55:49;21.80;70.90
2363;DHT22;64265;51.664;7.626;2023-05-21T03:58:19;21.80;70.60
2363;DHT22;64265;51.664;7.626;2023-05-21T04:00:46;21.80;70.90
2363;DHT22;64265;51.664;7.626;2023-05-21T04:03:13;21.80;70.70
2363;DHT22;64265;51.664;7.626;2023-05-21T04:05:40;21.90;71.10
2363;DHT22;64265;51.664;7.626;2023-05-21T04:08:08;21.80;70.80
2363;DHT22;64265;51.664;7.626;2023-05-21T04:10:36;21.80;70.70
2363;DHT22;64265;51.664;7.626;2023-05-21T04:13:02;21.80;70.90
2363;DHT22;64265;51.664;7.626;2023-05-21T04:15:29;21.80;70.80
2363;DHT22;64265;51.664;7.626;2023-05-21T04:17:56;21.80;70.70
2363;DHT22;64265;51.664;7.626;2023-05-21T04:20:24;21.80;71.00
2363;DHT22;64265;51.664;7.626;2023-05-21T04:22:51;21.80;70.90
2363;DHT22;64265;51.664;7.626;2023-05-21T04:25:18;21.80;70.80
2363;DHT22;64265;51.664;7.626;2023-05-21T04:27:47;21.80;70.80
2363;DHT22;64265;51.664;7.626;2023-05-21T04:30:14;21.80;71.10
2363;DHT22;64265;51.664;7.626;2023-05-21T04:32:41;21.80;71.00
2363;DHT22;64265;51.664;7.626;2023-05-21T04:35:10;21.70;70.80
2363;DHT22;64265;51.664;7.626;2023-05-21T04:37:39;21.70;70.90
2363;DHT22;64265;51.664;7.626;2023-05-21T04:40:07;21.70;70.80
2363;DHT22;64265;51.664;7.626;2023-05-21T04:42:34;21.70;70.80
2363;DHT22;64265;51.664;7.626;2023-05-21T04:45:03;21.70;70.80
2363;DHT22;64265;51.664;7.626;2023-05-21T04:47:30;21.70;71.00
2363;DHT22;64265;51.664;7.626;2023-05-21T04:49:59;21.70;71.00
2363;DHT22;64265;51.664;7.626;2023-05-21T04:52:26;21.70;70.80
2363;DHT22;64265;51.664;7.626;2023-05-21T04:54:53;21.70;70.90
2363;DHT22;64265;51.664;7.626;2023-05-21T04:57:19;21.70;70.80
2363;DHT22;64265;51.664;7.626;2023-05-21T04:59:49;21.70;70.90
2363;DHT22;64265;51.664;7.626;2023-05-21T05:02:17;21.70;70.90
2363;DHT22;64265;51.664;7.626;2023-05-21T05:04:43;21.70;70.80
2363;DHT22;64265;51.664;7.626;2023-05-21T05:07:11;21.70;70.90
2363;DHT22;64265;51.664;7.626;2023-05-21T05:09:38;21.70;71.00
2363;DHT22;64265;51.664;7.626;2023-05-21T05:12:05;21.70;70.90
2363;DHT22;64265;51.664;7.626;2023-05-21T05:14:32;21.60;70.80
2363;DHT22;64265;51.664;7.626;2023-05-21T05:16:58;21.60;70.90
2363;DHT22;64265;51.664;7.626;2023-05-21T05:19:27;21.70;70.90
2363;DHT22;64265;51.664;7.626;2023-05-21T05:21:54;21.60;70.90
2363;DHT22;64265;51.664;7.626;2023-05-21T05:24:20;21.70;71.10
2363;DHT22;64265;51.664;7.626;2023-05-21T05:26:47;21.60;70.90
2363;DHT22;64265;51.664;7.626;2023-05-21T05:29:13;21.70;71.20
2363;DHT22;64265;51.664;7.626;2023-05-21T05:31:40;21.70;71.20
2363;DHT22;64265;51.664;7.626;2023-05-21T05:34:07;21.70;71.30
2363;DHT22;64265;51.664;7.626;2023-05-21T05:36:35;21.70;71.20
2363;DHT22;64265;51.664;7.626;2023-05-21T05:39:02;21.70;71.20
2363;DHT22;64265;51.664;7.626;2023-05-21T05:41:28;21.70;71.30
2363;DHT22;64265;51.664;7.626;2023-05-21T05:43:55;21.70;71.40
2363;DHT22;64265;51.664;7.626;2023-05-21T05:46:22;21.70;71.20
2363;DHT22;64265;51.664;7.626;2023-05-21T05:48:49;21.80;71.30
2363;DHT22;64265;51.664;7.626;2023-05-21T05:51:16;21.80;71.40
2363;DHT22;64265;51.664;7.626;2023-05-21T05:53:44;21.80;71.40
2363;DHT22;64265;51.664;7.626;2023-05-21T05:56:10;21.80;71.40
2363;DHT22;64265;51.664;7.626;2023-05-21T05:58:37;21.80;71.50
2363;DHT22;64265;51.664;7.626;2023-05-21T06:01:04;21.80;71.50
2363;DHT22;64265;51.664;7.626;2023-05-21T06:03:31;21.80;71.50
2363;DHT22;64265;51.664;7.626;2023-05-21T06:05:57;21.80;71.50
2363;DHT22;64265;51.664;7.626;2023-05-21T06:08:24;21.90;71.60
2363;DHT22;64265;51.664;7.626;2023-05-21T06:10:52;21.90;71.70
2363;DHT22;64265;51.664;7.626;2023-05-21T06:13:19;21.90;71.60
2363;DHT22;64265;51.664;7.626;2023-05-21T06:15:45;21.90;71.70
2363;DHT22;64265;51.664;7.626;2023-05-21T06:18:12;21.90;71.50
2363;DHT22;64265;51.664;7.626;2023-05-21T06:20:39;22.00;71.80
2363;DHT22;64265;51.664;7.626;2023-05-21T06:23:05;22.00;71.70
2363;DHT22;64265;51.664;7.626;2023-05-21T06:25:33;22.00;71.50
2363;DHT22;64265;51.664;7.626;2023-05-21T06:28:01;22.00;71.60
2363;DHT22;64265;51.664;7.626;2023-05-21T06:30:27;22.00;71.50
2363;DHT22;64265;51.664;7.626;2023-05-21T06:32:54;22.00;72.40
2363;DHT22;64265;51.664;7.626;2023-05-21T06:35:21;22.10;71.70
2363;DHT22;64265;51.664;7.626;2023-05-21T06:37:48;22.10;71.60
2363;DHT22;64265;51.664;7.626;2023-05-21T06:40:15;22.10;71.60
2363;DHT22;64265;51.664;7.626;2023-05-21T06:42:42;22.10;71.50
2363;DHT22;64265;51.664;7.626;2023-05-21T06:45:11;22.10;71.60
2363;DHT22;64265;51.664;7.626;2023-05-21T06:47:37;22.10;71.50
2363;DHT22;64265;51.664;7.626;2023-05-21T06:50:04;22.10;71.50
2363;DHT22;64265;51.664;7.626;2023-05-21T06:52:31;22.10;71.50
2363;DHT22;64265;51.664;7.626;2023-05-21T06:54:58;22.10;71.40
2363;DHT22;64265;51.664;7.626;2023-05-21T06:57:24;22.10;71.40
2363;DHT22;64265;51.664;7.626;2023-05-21T06:59:51;22.10;71.70
2363;DHT22;64265;51.664;7.626;2023-05-21T07:02:19;22.10;71.60
2363;DHT22;64265;51.664;7.626;2023-05-21T07:04:46;22.10;71.60
2363;DHT22;64265;51.664;7.626;2023-05-21T07:07:12;22.20;71.80
2363;DHT22;64265;51.664;7.626;2023-05-21T07:09:39;22.20;72.00
2363;DHT22;64265;51.664;7.626;2023-05-21T07:12:06;22.20;72.00
2363;DHT22;64265;51.664;7.626;2023-05-21T07:14:33;22.20;72.00
2363;DHT22;64265;51.664;7.626;2023-05-21T07:16:59;22.20;72.10
2363;DHT22;64265;51.664;7.626;2023-05-21T07:19:27;22.20;72.20
2363;DHT22;64265;51.664;7.626;2023-05-21T07:21:54;22.20;72.30
2363;DHT22;64265;51.664;7.626;2023-05-21T07:24:21;22.30;72.50
2363;DHT22;64265;51.664;7.626;2023-05-21T07:26:48;22.30;72.50
2363;DHT22;64265;51.664;7.626;2023-05-21T07:29:15;22.30;72.50
2363;DHT22;64265;51.664;7.626;2023-05-21T07:31:42;22.30;72.50
2363;DHT22;64265;51.664;7.626;2023-05-21T07:34:08;22.40;72.70
2363;DHT22;64265;51.664;7.626;2023-05-21T07:36:36;22.40;72.80
2363;DHT22;64265;51.664;7.626;2023-05-21T07:39:03;22.40;72.70
2363;DHT22;64265;51.664;7.626;2023-05-21T07:41:30;22.50;72.70
2363;DHT22;64265;51.664;7.626;2023-05-21T07:43:57;22.50;72.80
2363;DHT22;64265;51.664;7.626;2023-05-21T07:46:25;22.50;72.80
2363;DHT22;64265;51.664;7.626;2023-05-21T07:48:52;22.60;72.90
2363;DHT22;64265;51.664;7.626;2023-05-21T07:51:19;22.60;72.80
2363;DHT22;64265;51.664;7.626;2023-05-21T07:53:47;22.60;72.80
2363;DHT22;64265;51.664;7.626;2023-05-21T07:56:13;22.70;73.00
2363;DHT22;64265;51.664;7.626;2023-05-21T07:58:40;22.70;72.90
2363;DHT22;64265;51.664;7.626;2023-05-21T08:01:10;22.80;72.70
2363;DHT22;64265;51.664;7.626;2023-05-21T08:03:37;22.80;73.10
2363;DHT22;64265;51.664;7.626;2023-05-21T08:06:03;22.80;73.20
2363;DHT22;64265;51.664;7.626;2023-05-21T08:08:31;22.80;72.90
2363;DHT22;64265;51.664;7.626;2023-05-21T08:10:59;22.80;72.80
2363;DHT22;64265;51.664;7.626;2023-05-21T08:13:26;22.90;72.90
2363;DHT22;64265;51.664;7.626;2023-05-21T08:15:53;22.90;72.60
2363;DHT22;64265;51.664;7.626;2023-05-21T08:18:19;22.90;72.40
2363;DHT22;64265;51.664;7.626;2023-05-21T08:20:48;22.90;72.20
2363;DHT22;64265;51.664;7.626;2023-05-21T08:23:14;22.90;72.00
2363;DHT22;64265;51.664;7.626;2023-05-21T08:25:44;22.90;71.90
2363;DHT22;64265;51.664;7.626;2023-05-21T08:28:12;22.90;72.20
2363;DHT22;64265;51.664;7.626;2023-05-21T08:30:39;22.90;72.70
2363;DHT22;64265;51.664;7.626;2023-05-21T08:33:05;22.90;72.90
2363;DHT22;64265;51.664;7.626;2023-05-21T08:35:32;22.90;72.60
2363;DHT22;64265;51.664;7.626;2023-05-21T08:37:59;23.00;72.90
2363;DHT22;64265;51.664;7.626;2023-05-21T08:40:26;23.00;72.80
2363;DHT22;64265;51.664;7.626;2023-05-21T08:42:52;23.00;72.50
2363;DHT22;64265;51.664;7.626;2023-05-21T08:45:21;23.00;72.40
2363;DHT22;64265;51.664;7.626;2023-05-21T08:47:54;23.00;72.10
2363;DHT22;64265;51.664;7.626;2023-05-21T08:50:25;23.00;71.90
2363;DHT22;64265;51.664;7.626;2023-05-21T08:52:52;23.00;71.90
2363;DHT22;64265;51.664;7.626;2023-05-21T08:55:20;23.00;71.80
2363;DHT22;64265;51.664;7.626;2023-05-21T08:57:47;23.00;71.70
2363;DHT22;64265;51.664;7.626;2023-05-21T09:00:15;23.00;71.60
2363;DHT22;64265;51.664;7.626;2023-05-21T09:02:44;23.00;71.60
2363;DHT22;64265;51.664;7.626;2023-05-21T09:05:11;23.00;71.60
2363;DHT22;64265;51.664;7.626;2023-05-21T09:07:42;23.00;71.50
2363;DHT22;64265;51.664;7.626;2023-05-21T09:10:13;23.00;71.50
2363;DHT22;64265;51.664;7.626;2023-05-21T09:12:40;23.00;71.50
2363;DHT22;64265;51.664;7.626;2023-05-21T09:15:08;23.00;71.40
2363;DHT22;64265;51.664;7.626;2023-05-21T09:17:34;23.00;71.30
2363;DHT22;64265;51.664;7.626;2023-05-21T09:20:08;23.00;71.30
2363;DHT22;64265;51.664;7.626;2023-05-21T09:22:38;23.00;71.30
2363;DHT22;64265;51.664;7.626;2023-05-21T09:25:06;23.00;71.20
2363;DHT22;64265;51.664;7.626;2023-05-21T09:27:33;23.00;71.20
2363;DHT22;64265;51.664;7.626;2023-05-21T09:30:01;23.00;71.20
2363;DHT22;64265;51.664;7.626;2023-05-21T09:32:28;23.10;71.30
2363;DHT22;64265;51.664;7.626;2023-05-21T09:34:54;23.00;71.20
2363;DHT22;64265;51.664;7.626;2023-05-21T09:37:23;23.00;71.20
2363;DHT22;64265;51.664;7.626;2023-05-21T09:39:49;23.10;71.30
2363;DHT22;64265;51.664;7.626;2023-05-21T09:42:19;23.10;71.20
2363;DHT22;64265;51.664;7.626;2023-05-21T09:44:47;23.10;71.30
2363;DHT22;64265;51.664;7.626;2023-05-21T09:47:18;23.00;71.20
2363;DHT22;64265;51.664;7.626;2023-05-21T09:49:45;23.00;71.40
2363;DHT22;64265;51.664;7.626;2023-05-21T09:52:12;23.00;71.30
2363;DHT22;64265;51.664;7.626;2023-05-21T09:54:40;23.00;71.50
2363;DHT22;64265;51.664;7.626;2023-05-21T09:57:07;23.00;71.40
2363;DHT22;64265;51.664;7.626;2023-05-21T09:59:37;23.00;71.40
2363;DHT22;64265;51.664;7.626;2023-05-21T10:02:15;23.00;71.50
2363;DHT22;64265;51.664;7.626;2023-05-21T10:04:43;23.00;71.30
2363;DHT22;64265;51.664;7.626;2023-05-21T10:07:10;22.90;71.30
2363;DHT22;64265;51.664;7.626;2023-05-21T10:09:37;22.90;71.90
2363;DHT22;64265;51.664;7.626;2023-05-21T10:12:06;22.90;72.10
2363;DHT22;64265;51.664;7.626;2023-05-21T10:14:35;22.90;72.30
2363;DHT22;64265;51.664;7.626;2023-05-21T10:17:04;22.90;72.30
2363;DHT22;64265;51.664;7.626;2023-05-21T10:19:32;22.90;72.80
2363;DHT22;64265;51.664;7.626;2023-05-21T10:22:01;22.90;72.90
2363;DHT22;64265;51.664;7.626;2023-05-21T10:24:28;22.90;73.10
2363;DHT22;64265;51.664;7.626;2023-05-21T10:26:56;22.90;73.20
2363;DHT22;64265;51.664;7.626;2023-05-21T10:29:24;22.90;73.50
2363;DHT22;64265;51.664;7.626;2023-05-21T10:31:51;22.90;73.70
2363;DHT22;64265;51.664;7.626;2023-05-21T10:34:18;22.90;73.60
2363;DHT22;64265;51.664;7.626;2023-05-21T10:36:48;23.00;73.80
2363;DHT22;64265;51.664;7.626;2023-05-21T10:39:15;23.00;73.90
2363;DHT22;64265;51.664;7.626;2023-05-21T10:41:50;23.00;74.00
2363;DHT22;64265;51.664;7.626;2023-05-21T10:44:23;23.00;74.10
2363;DHT22;64265;51.664;7.626;2023-05-21T10:47:09;23.10;74.20
2363;DHT22;64265;51.664;7.626;2023-05-21T10:52:54;23.10;74.50
2363;DHT22;64265;51.664;7.626;2023-05-21T10:55:37;23.10;74.30
2363;DHT22;64265;51.664;7.626;2023-05-21T10:58:31;23.20;74.50
2363;DHT22;64265;51.664;7.626;2023-05-21T11:01:01;23.20;74.60
2363;DHT22;64265;51.664;7.626;2023-05-21T11:03:30;23.20;74.20
2363;DHT22;64265;51.664;7.626;2023-05-21T11:06:01;23.20;74.30
2363;DHT22;64265;51.664;7.626;2023-05-21T11:08:30;23.30;74.40
2363;DHT22;64265;51.664;7.626;2023-05-21T11:11:00;23.30;74.80
2363;DHT22;64265;51.664;7.626;2023-05-21T11:13:28;23.30;74.50
2363;DHT22;64265;51.664;7.626;2023-05-21T11:16:06;23.30;74.60
2363;DHT22;64265;51.664;7.626;2023-05-21T11:19:02;23.40;74.50
2363;DHT22;64265;51.664;7.626;2023-05-21T11:21:30;23.40;74.50
2363;DHT22;64265;51.664;7.626;2023-05-21T11:24:01;23.40;74.40
2363;DHT22;64265;51.664;7.626;2023-05-21T11:26:29;23.40;74.40
2363;DHT22;64265;51.664;7.626;2023-05-21T11:29:17;23.40;74.30
2363;DHT22;64265;51.664;7.626;2023-05-21T11:31:44;23.50;74.50
2363;DHT22;64265;51.664;7.626;2023-05-21T11:34:13;23.50;74.50
2363;DHT22;64265;51.664;7.626;2023-05-21T11:36:41;23.50;74.40
2363;DHT22;64265;51.664;7.626;2023-05-21T11:39:10;23.50;74.60
2363;DHT22;64265;51.664;7.626;2023-05-21T11:41:50;23.50;74.40
2363;DHT22;64265;51.664;7.626;2023-05-21T11:44:17;23.60;74.50
2363;DHT22;64265;51.664;7.626;2023-05-21T11:46:45;23.60;74.50
2363;DHT22;64265;51.664;7.626;2023-05-21T11:49:14;23.60;74.40
2363;DHT22;64265;51.664;7.626;2023-05-21T11:51:41;23.60;74.40
2363;DHT22;64265;51.664;7.626;2023-05-21T11:54:09;23.60;74.40
2363;DHT22;64265;51.664;7.626;2023-05-21T11:56:37;23.70;74.60
2363;DHT22;64265;51.664;7.626;2023-05-21T11:59:12;23.70;74.50
2363;DHT22;64265;51.664;7.626;2023-05-21T12:01:41;23.70;74.50
2363;DHT22;64265;51.664;7.626;2023-05-21T12:04:08;23.70;74.50
2363;DHT22;64265;51.664;7.626;2023-05-21T12:06:37;23.70;74.60
2363;DHT22;64265;51.664;7.626;2023-05-21T12:09:07;23.80;74.70
2363;DHT22;64265;51.664;7.626;2023-05-21T12:11:35;23.80;74.60
2363;DHT22;64265;51.664;7.626;2023-05-21T12:14:01;23.80;74.70
2363;DHT22;64265;51.664;7.626;2023-05-21T12:16:28;23.80;74.60
2363;DHT22;64265;51.664;7.626;2023-05-21T12:18:55;23.80;74.60
2363;DHT22;64265;51.664;7.626;2023-05-21T12:21:22;23.80;74.60
2363;DHT22;64265;51.664;7.626;2023-05-21T12:23:50;23.80;74.60
2363;DHT22;64265;51.664;7.626;2023-05-21T12:26:17;23.80;74.50
2363;DHT22;64265;51.664;7.626;2023-05-21T12:28:44;23.90;74.60
2363;DHT22;64265;51.664;7.626;2023-05-21T12:31:13;23.90;74.50
2363;DHT22;64265;51.664;7.626;2023-05-21T12:33:43;23.90;75.00
2363;DHT22;64265;51.664;7.626;2023-05-21T12:36:10;23.90;75.60
2363;DHT22;64265;51.664;7.626;2023-05-21T12:38:36;23.80;75.70
2363;DHT22;64265;51.664;7.626;2023-05-21T12:41:05;23.80;76.20
2363;DHT22;64265;51.664;7.626;2023-05-21T12:43:32;23.80;76.30
2363;DHT22;64265;51.664;7.626;2023-05-21T12:45:59;23.80;76.20
2363;DHT22;64265;51.664;7.626;2023-05-21T12:48:26;23.90;76.50
2363;DHT22;64265;51.664;7.626;2023-05-21T12:50:52;23.80;75.90
2363;DHT22;64265;51.664;7.626;2023-05-21T12:53:19;23.90;76.50
2363;DHT22;64265;51.664;7.626;2023-05-21T12:55:46;23.80;76.20
2363;DHT22;64265;51.664;7.626;2023-05-21T12:58:14;23.80;76.40
2363;DHT22;64265;51.664;7.626;2023-05-21T13:00:42;23.90;76.60
2363;DHT22;64265;51.664;7.626;2023-05-21T13:03:09;23.90;76.50
2363;DHT22;64265;51.664;7.626;2023-05-21T13:05:39;23.90;76.40
2363;DHT22;64265;51.664;7.626;2023-05-21T13:08:06;23.90;76.50
2363;DHT22;64265;51.664;7.626;2023-05-21T13:10:34;23.90;76.60
2363;DHT22;64265;51.664;7.626;2023-05-21T13:13:01;23.90;76.00
2363;DHT22;64265;51.664;7.626;2023-05-21T13:15:29;23.90;75.90
2363;DHT22;64265;51.664;7.626;2023-05-21T13:17:56;23.90;76.20
2363;DHT22;64265;51.664;7.626;2023-05-21T13:20:25;23.90;76.00
2363;DHT22;64265;51.664;7.626;2023-05-21T13:22:52;23.90;76.00
2363;DHT22;64265;51.664;7.626;2023-05-21T13:25:20;23.90;75.70
2363;DHT22;64265;51.664;7.626;2023-05-21T13:27:49;23.90;75.50
2363;DHT22;64265;51.664;7.626;2023-05-21T13:30:17;23.90;75.40
2363;DHT22;64265;51.664;7.626;2023-05-21T13:32:45;23.90;75.40
2363;DHT22;64265;51.664;7.626;2023-05-21T13:35:12;23.90;75.40
2363;DHT22;64265;51.664;7.626;2023-05-21T13:37:40;23.90;75.50
2363;DHT22;64265;51.664;7.626;2023-05-21T13:40:09;23.90;75.30
2363;DHT22;64265;51.664;7.626;2023-05-21T13:42:36;23.90;75.30
2363;DHT22;64265;51.664;7.626;2023-05-21T13:45:04;23.90;75.30
2363;DHT22;64265;51.664;7.626;2023-05-21T13:47:31;23.90;75.30
2363;DHT22;64265;51.664;7.626;2023-05-21T13:49:59;23.90;75.30
2363;DHT22;64265;51.664;7.626;2023-05-21T13:52:26;23.90;75.20
2363;DHT22;64265;51.664;7.626;2023-05-21T13:54:53;23.90;75.10
2363;DHT22;64265;51.664;7.626;2023-05-21T13:57:20;23.90;75.10
2363;DHT22;64265;51.664;7.626;2023-05-21T13:59:47;23.80;75.10
2363;DHT22;64265;51.664;7.626;2023-05-21T14:02:15;23.80;75.00
2363;DHT22;64265;51.664;7.626;2023-05-21T14:04:41;23.80;75.10
2363;DHT22;64265;51.664;7.626;2023-05-21T14:07:10;23.90;75.10
2363;DHT22;64265;51.664;7.626;2023-05-21T14:09:37;23.80;75.10
2363;DHT22;64265;51.664;7.626;2023-05-21T14:12:04;23.80;75.00
2363;DHT22;64265;51.664;7.626;2023-05-21T14:14:31;23.80;75.00
2363;DHT22;64265;51.664;7.626;2023-05-21T14:16:58;23.80;75.00
2363;DHT22;64265;51.664;7.626;2023-05-21T14:19:25;23.80;74.90
2363;DHT22;64265;51.664;7.626;2023-05-21T14:21:51;23.80;74.90
2363;DHT22;64265;51.664;7.626;2023-05-21T14:24:19;23.80;75.00
2363;DHT22;64265;51.664;7.626;2023-05-21T14:26:46;23.80;75.00
2363;DHT22;64265;51.664;7.626;2023-05-21T14:29:13;23.70;74.80
2363;DHT22;64265;51.664;7.626;2023-05-21T14:31:39;23.70;74.80
2363;DHT22;64265;51.664;7.626;2023-05-21T14:34:06;23.70;74.80
2363;DHT22;64265;51.664;7.626;2023-05-21T14:36:33;23.70;74.90
2363;DHT22;64265;51.664;7.626;2023-05-21T14:39:00;23.70;74.90
2363;DHT22;64265;51.664;7.626;2023-05-21T14:41:28;23.70;74.90
2363;DHT22;64265;51.664;7.626;2023-05-21T14:43:55;23.60;74.80
2363;DHT22;64265;51.664;7.626;2023-05-21T14:46:22;23.60;74.90
2363;DHT22;64265;51.664;7.626;2023-05-21T14:48:49;23.60;74.90
2363;DHT22;64265;51.664;7.626;2023-05-21T14:51:15;23.60;74.90
2363;DHT22;64265;51.664;7.626;2023-05-21T14:53:42;23.60;74.90
2363;DHT22;64265;51.664;7.626;2023-05-21T14:56:09;23.60;75.00
2363;DHT22;64265;51.664;7.626;2023-05-21T14:58:37;23.60;75.00
2363;DHT22;64265;51.664;7.626;2023-05-21T15:01:04;23.50;74.90
2363;DHT22;64265;51.664;7.626;2023-05-21T15:03:30;23.50;74.90
2363;DHT22;64265;51.664;7.626;2023-05-21T15:05:57;23.50;75.00
2363;DHT22;64265;51.664;7.626;2023-05-21T15:08:24;23.50;75.00
2363;DHT22;64265;51.664;7.626;2023-05-21T15:10:50;23.50;75.10
2363;DHT22;64265;51.664;7.626;2023-05-21T15:13:17;23.50;75.10
2363;DHT22;64265;51.664;7.626;2023-05-21T15:18:14;23.40;75.00
2363;DHT22;64265;51.664;7.626;2023-05-21T15:20:40;23.40;75.00
2363;DHT22;64265;51.664;7.626;2023-05-21T15:23:07;23.40;75.00
2363;DHT22;64265;51.664;7.626;2023-05-21T15:25:34;23.40;75.10
2363;DHT22;64265;51.664;7.626;2023-05-21T15:28:00;23.40;75.10
2363;DHT22;64265;51.664;7.626;2023-05-21T15:30:27;23.40;75.10
2363;DHT22;64265;51.664;7.626;2023-05-21T15:32:55;23.40;75.10
2363;DHT22;64265;51.664;7.626;2023-05-21T15:35:22;23.40;75.30
2363;DHT22;64265;51.664;7.626;2023-05-21T15:37:48;23.30;75.10
2363;DHT22;64265;51.664;7.626;2023-05-21T15:40:15;23.30;75.20
2363;DHT22;64265;51.664;7.626;2023-05-21T15:42:42;23.30;75.20
2363;DHT22;64265;51.664;7.626;2023-05-21T15:45:09;23.30;75.20
2363;DHT22;64265;51.664;7.626;2023-05-21T15:47:36;23.30;75.30
2363;DHT22;64265;51.664;7.626;2023-05-21T15:50:08;23.30;75.30
2363;DHT22;64265;51.664;7.626;2023-05-21T15:52:35;23.30;75.30
2363;DHT22;64265;51.664;7.626;2023-05-21T15:55:02;23.30;75.40